createdAt,value
2019-05-23T00:01:13.042Z,7.30
2019-05-23T00:03:51.499Z,7.30
2019-05-23T00:06:26.937Z,7.30
2019-05-23T00:08:58.915Z,7.20
2019-05-23T00:11:46.945Z,7.20
2019-05-23T00:14:25.469Z,7.20
2019-05-23T00:17:01.678Z,7.10
2019-05-23T00:19:32.494Z,7.10
2019-05-23T00:22:06.400Z,7.00
2019-05-23T00:24:38.836Z,7.10
2019-05-23T00:27:11.733Z,7.20
2019-05-23T00:29:45.587Z,7.10
2019-05-23T00:32:27.560Z,7.00
2019-05-23T00:34:59.386Z,6.90
2019-05-23T00:37:33.858Z,6.90
2019-05-23T00:40:08.870Z,6.80
2019-05-23T00:42:41.986Z,6.80
2019-05-23T00:45:13.932Z,6.80
2019-05-23T00:47:44.796Z,6.80
2019-05-23T00:50:19.506Z,6.90
2019-05-23T00:52:51.216Z,6.90
2019-05-23T00:55:40.930Z,6.90
2019-05-23T00:58:11.970Z,6.80
2019-05-23T01:00:45.529Z,6.70
2019-05-23T01:03:18.947Z,6.60
2019-05-23T01:06:02.486Z,6.60
2019-05-23T01:08:33.105Z,6.50
2019-05-23T01:11:04.063Z,6.40
2019-05-23T01:13:38.129Z,6.40
2019-05-23T01:16:10.154Z,6.40
2019-05-23T01:18:53.925Z,6.50
2019-05-23T01:21:43.028Z,6.50
2019-05-23T01:24:27.406Z,6.60
2019-05-23T01:26:58.498Z,6.60
2019-05-23T01:29:37.629Z,6.50
2019-05-23T01:32:13.649Z,6.40
2019-05-23T01:34:48.158Z,6.30
2019-05-23T01:37:23.303Z,6.30
2019-05-23T01:39:57.331Z,6.30
2019-05-23T01:42:30.050Z,6.30
2019-05-23T01:45:03.179Z,6.30
2019-05-23T01:47:34.478Z,6.30
2019-05-23T01:50:07.012Z,6.40
2019-05-23T01:52:45.512Z,6.40
2019-05-23T01:55:22.296Z,6.30
2019-05-23T01:57:55.703Z,6.20
2019-05-23T02:00:48.412Z,6.10
2019-05-23T02:03:24.606Z,6.10
2019-05-23T02:05:57.719Z,6.10
2019-05-23T02:08:38.140Z,6.10
2019-05-23T02:11:12.351Z,6.10
2019-05-23T02:13:44.201Z,6.00
2019-05-23T02:16:15.250Z,6.00
2019-05-23T02:18:48.784Z,5.90
2019-05-23T02:21:22.299Z,6.00
2019-05-23T02:24:17.035Z,6.00
2019-05-23T02:26:48.930Z,6.10
2019-05-23T02:29:24.643Z,6.10
2019-05-23T02:31:55.853Z,6.00
2019-05-23T02:34:34.940Z,6.10
2019-05-23T02:37:13.152Z,6.00
2019-05-23T02:39:53.009Z,6.00
2019-05-23T02:42:31.291Z,5.80
2019-05-23T02:45:06.832Z,5.70
2019-05-23T02:47:41.037Z,5.70
2019-05-23T02:50:18.668Z,5.70
2019-05-23T02:52:54.533Z,5.60
2019-05-23T02:55:35.816Z,5.60
2019-05-23T02:58:27.747Z,5.60
2019-05-23T03:01:31.161Z,5.50
2019-05-23T03:04:12.648Z,5.40
2019-05-23T03:06:45.387Z,5.40
2019-05-23T03:09:19.539Z,5.40
2019-05-23T03:11:53.113Z,5.50
2019-05-23T03:14:27.022Z,5.50
2019-05-23T03:17:03.534Z,5.50
2019-05-23T03:19:48.506Z,5.60
2019-05-23T03:22:48.449Z,5.50
2019-05-23T03:25:39.836Z,5.50
2019-05-23T03:28:14.756Z,5.50
2019-05-23T03:30:48.764Z,5.50
2019-05-23T03:33:21.000Z,5.50
2019-05-23T03:35:58.229Z,5.50
2019-05-23T03:38:39.242Z,5.50
2019-05-23T03:41:11.261Z,5.50
2019-05-23T03:43:46.157Z,5.50
2019-05-23T03:46:22.072Z,5.60
2019-05-23T03:48:57.010Z,5.60
2019-05-23T03:51:30.805Z,5.70
2019-05-23T03:54:04.953Z,5.70
2019-05-23T03:56:37.791Z,5.70
2019-05-23T03:59:12.476Z,5.70
2019-05-23T04:01:55.920Z,5.60
2019-05-23T04:04:27.701Z,5.60
2019-05-23T04:07:03.126Z,5.50
2019-05-23T04:09:38.840Z,5.60
2019-05-23T04:12:11.831Z,5.60
2019-05-23T04:14:44.518Z,5.70
2019-05-23T04:17:20.595Z,5.70
2019-05-23T04:19:58.819Z,5.70
2019-05-23T04:22:32.006Z,5.80
2019-05-23T04:25:08.166Z,5.80
2019-05-23T04:27:50.583Z,6.00
2019-05-23T04:30:23.033Z,6.10
2019-05-23T04:53:23.313Z,6.90
2019-05-23T05:17:19.406Z,7.60
2019-05-23T05:22:26.586Z,7.90
2019-05-23T05:28:44.908Z,8.10
2019-05-23T05:31:34.436Z,8.30
2019-05-23T05:34:20.232Z,8.50
2019-05-23T05:37:11.483Z,8.70
2019-05-23T05:39:46.416Z,8.80
2019-05-23T05:42:18.041Z,9.00
2019-05-23T05:44:48.178Z,9.10
2019-05-23T05:47:19.352Z,9.30
2019-05-23T05:49:50.411Z,9.50
2019-05-23T05:52:22.165Z,9.70
2019-05-23T05:54:52.312Z,9.80
2019-05-23T05:57:22.573Z,9.90
2019-05-23T05:59:53.168Z,10.10
2019-05-23T06:02:23.583Z,10.20
2019-05-23T06:04:56.076Z,10.40
2019-05-23T06:07:37.011Z,10.60
2019-05-23T06:10:12.264Z,10.70
2019-05-23T06:12:42.553Z,10.80
2019-05-23T06:15:13.473Z,11.00
2019-05-23T06:17:45.246Z,11.10
2019-05-23T06:20:16.733Z,11.30
2019-05-23T06:22:50.243Z,11.40
2019-05-23T06:25:20.373Z,11.60
2019-05-23T06:27:50.518Z,11.70
2019-05-23T06:30:22.398Z,11.80
2019-05-23T06:32:52.757Z,12.00
2019-05-23T06:35:22.894Z,12.10
2019-05-23T06:37:53.255Z,12.10
2019-05-23T06:40:27.358Z,12.20
2019-05-23T06:42:57.729Z,12.30
2019-05-23T06:45:28.366Z,12.50
2019-05-23T06:47:58.956Z,12.60
2019-05-23T06:50:30.768Z,12.70
2019-05-23T06:53:00.982Z,12.80
2019-05-23T06:55:31.108Z,12.90
2019-05-23T06:58:02.291Z,13.10
2019-05-23T07:00:32.930Z,13.20
2019-05-23T07:03:03.565Z,13.30
2019-05-23T07:05:38.210Z,13.50
2019-05-23T07:08:08.754Z,13.60
2019-05-23T07:10:42.681Z,13.70
2019-05-23T07:13:13.382Z,13.80
2019-05-23T07:15:44.948Z,13.80
2019-05-23T07:18:15.933Z,14.00
2019-05-23T07:20:46.114Z,14.10
2019-05-23T07:23:17.141Z,14.30
2019-05-23T07:25:49.376Z,14.40
2019-05-23T07:28:19.523Z,14.50
2019-05-23T07:30:50.059Z,14.60
2019-05-23T07:33:20.249Z,14.70
2019-05-23T07:35:50.482Z,14.80
2019-05-23T07:38:22.554Z,14.80
2019-05-23T07:40:53.272Z,14.90
2019-05-23T07:43:23.948Z,14.90
2019-05-23T07:45:57.537Z,15.00
2019-05-23T07:48:29.142Z,15.10
2019-05-23T07:50:59.854Z,15.20
2019-05-23T07:53:53.317Z,15.20
2019-05-23T07:56:25.145Z,15.30
2019-05-23T07:58:55.971Z,15.30
2019-05-23T08:01:29.111Z,15.40
2019-05-23T08:04:19.891Z,15.50
2019-05-23T08:06:36.497Z,15.60
2019-05-23T08:09:08.255Z,15.70
2019-05-23T08:11:38.866Z,15.70
2019-05-23T08:14:12.250Z,15.80
2019-05-23T08:16:42.750Z,15.80
2019-05-23T08:19:19.342Z,15.80
2019-05-23T08:21:46.921Z,16.00
2019-05-23T08:24:17.796Z,16.10
2019-05-23T08:26:49.291Z,16.20
2019-05-23T08:29:27.983Z,16.10
2019-05-23T08:31:52.729Z,16.10
2019-05-23T08:34:40.163Z,16.30
2019-05-23T08:36:55.521Z,16.40
2019-05-23T08:39:29.196Z,16.60
2019-05-23T08:42:00.597Z,16.80
2019-05-23T08:44:30.893Z,16.90
2019-05-23T08:47:01.755Z,17.10
2019-05-23T08:49:32.749Z,17.20
2019-05-23T08:52:03.424Z,17.20
2019-05-23T08:54:34.433Z,17.20
2019-05-23T08:57:08.260Z,16.80
2019-05-23T08:59:38.678Z,16.90
2019-05-23T09:02:12.935Z,17.20
2019-05-23T09:05:02.302Z,17.40
2019-05-23T09:07:19.194Z,17.30
2019-05-23T09:09:50.903Z,17.20
2019-05-23T09:12:21.546Z,17.40
2019-05-23T09:14:52.812Z,17.60
2019-05-23T09:17:23.253Z,17.40
2019-05-23T09:19:53.607Z,17.10
2019-05-23T09:22:23.891Z,17.20
2019-05-23T09:24:54.093Z,17.40
2019-05-23T09:27:27.175Z,17.60
2019-05-23T09:29:58.515Z,17.40
2019-05-23T09:32:28.813Z,17.20
2019-05-23T09:34:59.778Z,17.30
2019-05-23T09:37:30.165Z,17.50
2019-05-23T09:40:00.721Z,17.50
2019-05-23T09:42:34.039Z,17.60
2019-05-23T09:45:04.819Z,17.60
2019-05-23T09:47:35.013Z,17.70
2019-05-23T09:50:07.378Z,17.70
2019-05-23T09:52:38.368Z,17.90
2019-05-23T09:55:09.585Z,17.90
2019-05-23T09:57:39.709Z,17.90
2019-05-23T10:00:13.434Z,17.90
2019-05-23T10:02:43.732Z,17.90
2019-05-23T10:05:14.803Z,17.90
2019-05-23T10:07:49.210Z,17.90
2019-05-23T10:10:23.776Z,18.10
2019-05-23T10:12:55.070Z,18.10
2019-05-23T10:15:47.237Z,18.20
2019-05-23T10:18:21.116Z,18.20
2019-05-23T10:20:51.917Z,18.20
2019-05-23T10:23:22.091Z,17.90
2019-05-23T10:25:52.254Z,17.80
2019-05-23T10:28:22.468Z,18.00
2019-05-23T10:30:54.080Z,18.20
2019-05-23T10:33:24.183Z,18.00
2019-05-23T10:36:00.614Z,18.10
2019-05-23T10:38:29.452Z,18.20
2019-05-23T10:40:59.967Z,18.30
2019-05-23T10:43:30.519Z,18.20
2019-05-23T10:46:04.161Z,18.10
2019-05-23T10:48:37.556Z,18.10
2019-05-23T10:51:09.890Z,18.40
2019-05-23T10:53:40.056Z,18.70
2019-05-23T10:56:11.003Z,18.90
2019-05-23T10:58:41.457Z,19.00
2019-05-23T11:01:12.180Z,18.70
2019-05-23T11:03:45.038Z,18.70
2019-05-23T11:06:17.087Z,18.90
2019-05-23T11:08:47.904Z,19.00
2019-05-23T11:11:18.457Z,19.30
2019-05-23T11:13:49.852Z,19.20
2019-05-23T11:16:24.847Z,19.40
2019-05-23T11:18:56.048Z,19.50
2019-05-23T11:21:26.191Z,19.70
2019-05-23T11:23:58.008Z,19.70
2019-05-23T11:26:31.422Z,19.70
2019-05-23T11:29:04.101Z,19.80
2019-05-23T11:31:34.589Z,19.80
2019-05-23T11:34:05.434Z,19.80
2019-05-23T11:36:44.819Z,19.60
2019-05-23T11:39:15.025Z,19.30
2019-05-23T11:41:47.332Z,19.20
2019-05-23T11:44:18.757Z,19.20
2019-05-23T11:46:49.534Z,19.20
2019-05-23T11:49:19.643Z,19.10
2019-05-23T11:51:50.195Z,19.40
2019-05-23T11:54:22.010Z,19.60
2019-05-23T11:56:54.578Z,19.80
2019-05-23T11:59:29.400Z,20.10
2019-05-23T12:02:19.933Z,20.40
2019-05-23T12:04:51.989Z,20.50
2019-05-23T12:07:29.366Z,20.50
2019-05-23T12:10:00.517Z,20.30
2019-05-23T12:12:33.536Z,20.50
2019-05-23T12:15:05.853Z,20.80
2019-05-23T12:17:36.041Z,21.00
2019-05-23T12:20:11.078Z,21.10
2019-05-23T12:22:42.307Z,20.90
2019-05-23T12:25:23.518Z,20.70
2019-05-23T12:27:56.709Z,20.50
2019-05-23T12:30:29.623Z,20.40
2019-05-23T12:32:59.920Z,20.60
2019-05-23T12:35:31.040Z,20.50
2019-05-23T12:38:02.622Z,20.40
2019-05-23T12:40:33.433Z,20.50
2019-05-23T12:43:03.733Z,20.60
2019-05-23T12:45:35.160Z,20.70
2019-05-23T12:48:14.178Z,20.60
2019-05-23T12:50:46.169Z,20.80
2019-05-23T13:00:55.965Z,21.00
2019-05-23T13:03:29.916Z,21.20
2019-05-23T13:06:06.242Z,21.60
2019-05-23T13:08:48.827Z,21.80
2019-05-23T13:11:41.965Z,22.00
2019-05-23T13:14:14.072Z,22.00
2019-05-23T13:16:46.831Z,22.00
2019-05-23T13:19:19.597Z,21.80
2019-05-23T13:22:00.883Z,21.80
2019-05-23T13:24:52.035Z,22.00
2019-05-23T13:27:10.896Z,22.50
2019-05-23T13:29:41.636Z,23.40
2019-05-23T13:32:14.217Z,24.80
2019-05-23T13:34:44.492Z,26.20
2019-05-23T13:37:17.554Z,26.80
2019-05-23T13:39:49.419Z,27.70
2019-05-23T13:42:21.707Z,29.00
2019-05-23T13:44:53.016Z,30.70
2019-05-23T13:47:25.605Z,30.50
2019-05-23T13:49:56.047Z,30.40
2019-05-23T13:52:27.449Z,31.20
2019-05-23T13:54:57.919Z,31.80
2019-05-23T13:57:28.179Z,31.70
2019-05-23T13:59:58.784Z,31.90
2019-05-23T14:02:29.218Z,33.00
2019-05-23T14:05:00.270Z,33.10
2019-05-23T14:07:32.176Z,33.60
2019-05-23T14:10:05.547Z,33.60
2019-05-23T14:12:35.910Z,34.30
2019-05-23T14:15:08.020Z,34.60
2019-05-23T14:17:42.861Z,34.60
2019-05-23T14:20:15.750Z,34.40
2019-05-23T14:22:51.957Z,34.20
2019-05-23T14:25:25.356Z,35.00
2019-05-23T14:28:16.200Z,36.00
2019-05-23T14:30:58.896Z,35.80
2019-05-23T14:33:56.051Z,35.10
2019-05-23T14:36:57.523Z,35.90
2019-05-23T14:39:35.448Z,37.60
2019-05-23T14:42:23.753Z,38.20
2019-05-23T14:44:54.095Z,38.50
2019-05-23T14:47:44.877Z,37.90
2019-05-23T14:50:38.291Z,37.60
2019-05-23T14:53:11.574Z,36.00
2019-05-23T14:55:41.690Z,36.60
2019-05-23T14:58:12.650Z,36.90
2019-05-23T15:00:44.908Z,36.20
2019-05-23T15:03:16.430Z,36.50
2019-05-23T15:05:48.010Z,37.10
2019-05-23T15:08:18.941Z,38.10
2019-05-23T15:10:49.247Z,38.30
2019-05-23T15:13:19.365Z,37.80
2019-05-23T15:15:49.524Z,38.40
2019-05-23T15:18:20.715Z,38.60
2019-05-23T15:20:53.145Z,39.10
2019-05-23T15:23:25.232Z,39.90
2019-05-23T15:25:55.383Z,40.70
2019-05-23T15:28:26.340Z,40.40
2019-05-23T15:33:34.820Z,39.10
2019-05-23T15:36:10.919Z,39.20
2019-05-23T15:38:42.928Z,39.10
2019-05-23T15:41:15.814Z,39.60
2019-05-23T15:43:49.054Z,40.20
2019-05-23T15:46:19.294Z,40.70
2019-05-23T15:48:50.193Z,39.40
2019-05-23T15:51:24.250Z,39.90
2019-05-23T15:54:02.563Z,40.00
2019-05-23T15:56:42.640Z,39.80
2019-05-23T15:59:32.804Z,39.60
2019-05-23T16:02:16.735Z,39.70
2019-05-23T16:04:50.134Z,40.50
2019-05-23T16:07:21.788Z,41.30
2019-05-23T16:09:53.117Z,41.50
2019-05-23T16:12:23.606Z,41.30
2019-05-23T16:14:54.971Z,40.80
2019-05-23T16:17:25.686Z,40.80
2019-05-23T16:19:55.790Z,40.60
2019-05-23T16:22:28.983Z,40.70
2019-05-23T16:25:03.382Z,40.80
2019-05-23T16:27:33.663Z,39.80
2019-05-23T16:30:05.481Z,39.30
2019-05-23T16:32:35.658Z,39.10
2019-05-23T16:35:06.217Z,39.50
2019-05-23T16:37:37.734Z,39.90
2019-05-23T16:40:09.992Z,40.50
2019-05-23T16:42:40.179Z,41.10
2019-05-23T16:45:11.352Z,41.60
2019-05-23T16:47:44.627Z,41.40
2019-05-23T16:50:15.345Z,41.60
2019-05-23T16:52:47.378Z,41.80
2019-05-23T16:55:29.442Z,42.10
2019-05-23T16:58:03.508Z,42.20
2019-05-23T17:00:58.900Z,40.70
2019-05-23T17:03:47.981Z,39.60
2019-05-23T17:06:34.152Z,39.50
2019-05-23T17:09:23.620Z,39.50
2019-05-23T17:12:11.282Z,39.10
2019-05-23T17:14:52.028Z,39.60
2019-05-23T17:18:02.271Z,39.80
2019-05-23T17:20:38.410Z,39.50
2019-05-23T17:23:27.940Z,38.60
2019-05-23T17:26:23.214Z,37.70
2019-05-23T17:28:56.079Z,37.10
2019-05-23T17:31:31.643Z,36.10
2019-05-23T17:34:02.256Z,34.20
2019-05-23T17:36:33.685Z,31.40
2019-05-23T17:39:05.090Z,29.80
2019-05-23T17:41:35.311Z,28.50
2019-05-23T17:44:05.887Z,27.30
2019-05-23T17:46:38.257Z,26.40
2019-05-23T17:49:11.353Z,25.60
2019-05-23T17:51:41.895Z,24.80
2019-05-23T17:54:13.357Z,24.20
2019-05-23T17:56:45.618Z,23.70
2019-05-23T17:59:18.529Z,23.40
2019-05-23T18:01:52.882Z,23.10
2019-05-23T18:04:25.582Z,22.80
2019-05-23T18:06:56.271Z,22.50
2019-05-23T18:09:27.753Z,22.20
2019-05-23T18:11:58.864Z,21.90
2019-05-23T18:14:29.840Z,21.70
2019-05-23T18:17:07.204Z,21.60
2019-05-23T18:19:48.664Z,21.40
2019-05-23T18:22:21.615Z,21.20
2019-05-23T18:24:59.460Z,21.10
2019-05-23T18:27:28.454Z,21.00
2019-05-23T18:30:03.285Z,20.80
2019-05-23T18:32:35.876Z,20.70
2019-05-23T18:35:09.601Z,20.50
2019-05-23T18:37:40.468Z,20.00
2019-05-23T18:40:12.293Z,19.20
2019-05-23T18:42:44.433Z,18.70
2019-05-23T18:45:18.417Z,18.30
2019-05-23T18:47:51.088Z,18.10
2019-05-23T18:50:28.392Z,18.00
2019-05-23T18:53:04.707Z,17.60
2019-05-23T18:55:37.146Z,17.40
2019-05-23T18:58:08.232Z,17.20
2019-05-23T19:01:17.531Z,16.90
2019-05-23T19:03:47.747Z,16.80
2019-05-23T19:06:18.083Z,16.50
2019-05-23T19:08:48.693Z,16.30
2019-05-23T19:11:21.522Z,16.00
2019-05-23T19:13:58.672Z,15.70
2019-05-23T19:16:30.271Z,15.40
2019-05-23T19:19:03.401Z,15.30
2019-05-23T19:21:33.859Z,15.20
2019-05-23T19:24:04.810Z,15.10
2019-05-23T19:26:34.992Z,15.00
2019-05-23T19:29:05.332Z,15.00
2019-05-23T19:31:36.414Z,14.90
2019-05-23T19:34:07.423Z,14.80
2019-05-23T19:36:38.603Z,14.70
2019-05-23T19:39:10.086Z,14.60
2019-05-23T19:41:42.363Z,14.30
2019-05-23T19:44:15.230Z,14.10
2019-05-23T19:46:47.308Z,14.00
2019-05-23T19:49:18.379Z,14.00
2019-05-23T19:51:49.193Z,13.90
2019-05-23T19:54:21.385Z,13.80
2019-05-23T19:56:54.745Z,13.80
2019-05-23T19:59:27.794Z,13.80
2019-05-23T20:02:14.138Z,13.70
2019-05-23T20:04:50.732Z,13.70
2019-05-23T20:07:23.022Z,13.70
2019-05-23T20:09:57.619Z,13.70
2019-05-23T20:12:28.088Z,13.70
2019-05-23T20:15:00.135Z,13.40
2019-05-23T20:17:30.464Z,13.40
2019-05-23T20:20:01.925Z,13.40
2019-05-23T20:22:33.649Z,13.20
2019-05-23T20:25:07.982Z,13.10
2019-05-23T20:27:38.966Z,13.20
2019-05-23T20:30:14.340Z,13.20
2019-05-23T20:32:45.319Z,13.10
2019-05-23T20:36:11.985Z,13.10
2019-05-23T20:38:42.420Z,13.00
2019-05-23T20:41:13.385Z,13.00
2019-05-23T20:43:43.596Z,12.80
2019-05-23T20:46:16.092Z,12.60
2019-05-23T20:48:46.312Z,12.50
2019-05-23T20:51:20.988Z,12.30
2019-05-23T20:53:51.475Z,12.20
2019-05-23T20:56:21.744Z,12.10
2019-05-23T20:58:54.460Z,12.10
2019-05-23T21:01:31.746Z,12.00
2019-05-23T21:04:03.440Z,12.00
2019-05-23T21:06:33.830Z,11.90
2019-05-23T21:09:06.231Z,11.90
2019-05-23T21:11:37.245Z,12.00
2019-05-23T21:14:07.502Z,12.00
2019-05-23T21:16:37.699Z,12.00
2019-05-23T21:19:08.256Z,12.00
2019-05-23T21:21:38.436Z,12.10
2019-05-23T21:24:08.910Z,12.10
2019-05-23T21:26:39.204Z,12.10
2019-05-23T21:29:09.557Z,11.90
2019-05-23T21:31:41.745Z,11.70
2019-05-23T21:34:12.839Z,11.60
2019-05-23T21:36:43.026Z,11.40
2019-05-23T21:39:14.890Z,11.30
2019-05-23T21:41:45.663Z,11.20
2019-05-23T21:44:16.043Z,11.20
2019-05-23T21:46:46.445Z,11.30
2019-05-23T21:49:18.618Z,11.40
2019-05-23T21:51:51.799Z,11.40
2019-05-23T21:54:20.988Z,11.30
2019-05-23T21:56:52.143Z,11.20
2019-05-23T21:59:22.388Z,11.00
2019-05-23T22:01:58.111Z,11.00
2019-05-23T22:04:47.798Z,11.00
2019-05-23T22:07:18.040Z,10.90
2019-05-23T22:09:48.133Z,10.90
2019-05-23T22:12:19.579Z,10.80
2019-05-23T22:14:49.666Z,10.70
2019-05-23T22:17:22.972Z,10.70
2019-05-23T22:19:53.242Z,10.70
2019-05-23T22:22:24.929Z,10.70
2019-05-23T22:24:55.121Z,10.70
2019-05-23T22:27:26.750Z,10.60
2019-05-23T22:29:57.823Z,10.50
2019-05-23T22:32:29.865Z,10.50
2019-05-23T22:35:06.150Z,10.50
2019-05-23T22:37:36.279Z,10.40
2019-05-23T22:40:07.823Z,10.30
2019-05-23T22:42:39.195Z,10.20
2019-05-23T22:45:15.499Z,10.20
2019-05-23T22:47:46.956Z,10.10
2019-05-23T22:50:17.435Z,10.10
2019-05-23T22:52:47.625Z,10.10
2019-05-23T22:55:18.467Z,9.90
2019-05-23T22:57:48.641Z,10.00
2019-05-23T23:00:26.266Z,10.00
2019-05-23T23:02:58.095Z,9.90
2019-05-23T23:05:29.638Z,9.90
2019-05-23T23:08:00.957Z,9.90
2019-05-23T23:10:31.707Z,9.90
2019-05-23T23:13:01.878Z,9.90
2019-05-23T23:15:33.175Z,9.90
2019-05-23T23:18:04.982Z,10.00
2019-05-23T23:20:38.626Z,10.00
2019-05-23T23:23:08.754Z,10.00
2019-05-23T23:25:40.444Z,10.00
2019-05-23T23:28:10.988Z,9.90
2019-05-23T23:30:43.254Z,9.80
2019-05-23T23:33:15.587Z,9.80
2019-05-23T23:35:45.923Z,9.50
2019-05-23T23:38:16.069Z,9.40
2019-05-23T23:40:46.492Z,9.40
2019-05-23T23:43:17.588Z,9.40
2019-05-23T23:46:05.451Z,9.50
2019-05-23T23:48:56.256Z,9.40
2019-05-23T23:51:46.822Z,9.30
2019-05-23T23:54:34.956Z,9.20
2019-05-23T23:57:23.101Z,9.30
2019-05-23T23:59:52.657Z,9.30
